sensor_id;sensor_type;location;lat;lon;timestamp;P1;durP1;ratioP1;P2;durP2;ratioP2
11541;SDS011;5827;49.482;7.716;2022-10-29T00:02:00;17.65;;;9.88;;
11541;SDS011;5827;49.482;7.716;2022-10-29T00:04:02;15.85;;;9.10;;
11541;SDS011;5827;49.482;7.716;2022-10-29T00:06:04;16.52;;;9.00;;
11541;SDS011;5827;49.482;7.716;2022-10-29T00:08:07;16.95;;;9.20;;
11541;SDS011;5827;49.482;7.716;2022-10-29T00:10:09;15.65;;;9.48;;
11541;SDS011;5827;49.482;7.716;2022-10-29T00:12:12;19.00;;;10.18;;
11541;SDS011;5827;49.482;7.716;2022-10-29T00:14:14;18.52;;;10.40;;
11541;SDS011;5827;49.482;7.716;2022-10-29T00:16:18;15.93;;;9.95;;
11541;SDS011;5827;49.482;7.716;2022-10-29T00:18:21;17.30;;;10.00;;
11541;SDS011;5827;49.482;7.716;2022-10-29T00:20:22;20.05;;;10.13;;
11541;SDS011;5827;49.482;7.716;2022-10-29T00:22:24;19.45;;;9.68;;
11541;SDS011;5827;49.482;7.716;2022-10-29T00:24:25;15.75;;;8.90;;
11541;SDS011;5827;49.482;7.716;2022-10-29T00:26:27;14.13;;;8.95;;
11541;SDS011;5827;49.482;7.716;2022-10-29T00:28:31;12.13;;;8.60;;
11541;SDS011;5827;49.482;7.716;2022-10-29T00:30:33;13.93;;;8.82;;
11541;SDS011;5827;49.482;7.716;2022-10-29T00:32:35;12.55;;;8.57;;
11541;SDS011;5827;49.482;7.716;2022-10-29T00:34:36;11.38;;;8.75;;
11541;SDS011;5827;49.482;7.716;2022-10-29T00:36:38;11.20;;;8.43;;
11541;SDS011;5827;49.482;7.716;2022-10-29T00:38:40;11.27;;;8.20;;
11541;SDS011;5827;49.482;7.716;2022-10-29T00:40:42;11.50;;;8.60;;
11541;SDS011;5827;49.482;7.716;2022-10-29T00:42:43;10.77;;;8.50;;
11541;SDS011;5827;49.482;7.716;2022-10-29T00:44:46;11.38;;;8.63;;
11541;SDS011;5827;49.482;7.716;2022-10-29T00:46:48;14.40;;;8.80;;
11541;SDS011;5827;49.482;7.716;2022-10-29T00:48:54;14.73;;;8.55;;
11541;SDS011;5827;49.482;7.716;2022-10-29T00:50:57;12.90;;;8.63;;
11541;SDS011;5827;49.482;7.716;2022-10-29T00:53:01;17.40;;;9.15;;
11541;SDS011;5827;49.482;7.716;2022-10-29T00:55:04;15.68;;;9.02;;
11541;SDS011;5827;49.482;7.716;2022-10-29T00:57:10;15.25;;;8.57;;
11541;SDS011;5827;49.482;7.716;2022-10-29T00:59:15;10.75;;;8.50;;
11541;SDS011;5827;49.482;7.716;2022-10-29T01:01:19;16.98;;;9.68;;
11541;SDS011;5827;49.482;7.716;2022-10-29T01:03:21;15.73;;;9.93;;
11541;SDS011;5827;49.482;7.716;2022-10-29T01:05:22;16.63;;;10.70;;
11541;SDS011;5827;49.482;7.716;2022-10-29T01:07:25;15.83;;;11.10;;
11541;SDS011;5827;49.482;7.716;2022-10-29T01:09:28;20.52;;;12.27;;
11541;SDS011;5827;49.482;7.716;2022-10-29T01:11:35;18.48;;;11.90;;
11541;SDS011;5827;49.482;7.716;2022-10-29T01:13:49;18.27;;;10.75;;
11541;SDS011;5827;49.482;7.716;2022-10-29T01:16:02;15.05;;;10.57;;
11541;SDS011;5827;49.482;7.716;2022-10-29T01:18:15;20.42;;;11.82;;
11541;SDS011;5827;49.482;7.716;2022-10-29T01:20:31;18.42;;;10.82;;
11541;SDS011;5827;49.482;7.716;2022-10-29T01:22:46;17.20;;;11.45;;
11541;SDS011;5827;49.482;7.716;2022-10-29T01:25:05;18.35;;;12.38;;
11541;SDS011;5827;49.482;7.716;2022-10-29T01:27:22;15.97;;;11.43;;
11541;SDS011;5827;49.482;7.716;2022-10-29T01:29:54;18.93;;;12.33;;
11541;SDS011;5827;49.482;7.716;2022-10-29T01:32:06;19.65;;;13.23;;
11541;SDS011;5827;49.482;7.716;2022-10-29T01:34:14;14.77;;;11.95;;
11541;SDS011;5827;49.482;7.716;2022-10-29T01:36:23;20.90;;;13.83;;
11541;SDS011;5827;49.482;7.716;2022-10-29T01:38:33;17.67;;;12.18;;
11541;SDS011;5827;49.482;7.716;2022-10-29T01:40:42;19.75;;;11.63;;
11541;SDS011;5827;49.482;7.716;2022-10-29T01:42:50;16.13;;;11.68;;
11541;SDS011;5827;49.482;7.716;2022-10-29T01:44:57;12.95;;;10.27;;
11541;SDS011;5827;49.482;7.716;2022-10-29T01:47:08;16.95;;;11.00;;
11541;SDS011;5827;49.482;7.716;2022-10-29T01:49:27;15.10;;;11.50;;
11541;SDS011;5827;49.482;7.716;2022-10-29T01:51:32;22.77;;;13.77;;
11541;SDS011;5827;49.482;7.716;2022-10-29T01:53:37;18.13;;;13.85;;
11541;SDS011;5827;49.482;7.716;2022-10-29T01:55:40;14.60;;;11.93;;
11541;SDS011;5827;49.482;7.716;2022-10-29T01:57:42;21.00;;;10.93;;
11541;SDS011;5827;49.482;7.716;2022-10-29T01:59:43;15.23;;;9.90;;
11541;SDS011;5827;49.482;7.716;2022-10-29T02:01:47;13.60;;;10.13;;
11541;SDS011;5827;49.482;7.716;2022-10-29T02:04:00;13.97;;;10.23;;
11541;SDS011;5827;49.482;7.716;2022-10-29T02:06:18;15.32;;;10.63;;
11541;SDS011;5827;49.482;7.716;2022-10-29T02:08:35;17.00;;;10.55;;
11541;SDS011;5827;49.482;7.716;2022-10-29T02:10:44;14.07;;;10.00;;
11541;SDS011;5827;49.482;7.716;2022-10-29T02:12:54;15.77;;;10.18;;
11541;SDS011;5827;49.482;7.716;2022-10-29T02:14:57;13.48;;;9.63;;
11541;SDS011;5827;49.482;7.716;2022-10-29T02:17:04;15.95;;;10.55;;
11541;SDS011;5827;49.482;7.716;2022-10-29T02:19:08;16.77;;;10.68;;
11541;SDS011;5827;49.482;7.716;2022-10-29T02:21:10;13.30;;;10.23;;
11541;SDS011;5827;49.482;7.716;2022-10-29T02:23:14;13.55;;;10.52;;
11541;SDS011;5827;49.482;7.716;2022-10-29T02:25:16;14.93;;;11.00;;
11541;SDS011;5827;49.482;7.716;2022-10-29T02:27:18;13.73;;;11.70;;
11541;SDS011;5827;49.482;7.716;2022-10-29T02:29:20;18.10;;;10.73;;
11541;SDS011;5827;49.482;7.716;2022-10-29T02:31:21;19.15;;;11.43;;
11541;SDS011;5827;49.482;7.716;2022-10-29T02:33:23;14.30;;;11.00;;
11541;SDS011;5827;49.482;7.716;2022-10-29T02:35:26;17.13;;;10.98;;
11541;SDS011;5827;49.482;7.716;2022-10-29T02:37:27;18.13;;;10.80;;
11541;SDS011;5827;49.482;7.716;2022-10-29T02:39:28;18.10;;;10.75;;
11541;SDS011;5827;49.482;7.716;2022-10-29T02:41:30;12.02;;;8.30;;
11541;SDS011;5827;49.482;7.716;2022-10-29T02:43:31;10.48;;;7.72;;
11541;SDS011;5827;49.482;7.716;2022-10-29T02:45:33;8.80;;;7.25;;
11541;SDS011;5827;49.482;7.716;2022-10-29T02:47:34;8.18;;;7.38;;
11541;SDS011;5827;49.482;7.716;2022-10-29T02:49:36;11.25;;;7.85;;
11541;SDS011;5827;49.482;7.716;2022-10-29T02:51:39;8.10;;;6.95;;
11541;SDS011;5827;49.482;7.716;2022-10-29T02:53:40;9.57;;;6.95;;
11541;SDS011;5827;49.482;7.716;2022-10-29T02:55:42;8.70;;;6.60;;
11541;SDS011;5827;49.482;7.716;2022-10-29T02:57:44;9.47;;;7.40;;
11541;SDS011;5827;49.482;7.716;2022-10-29T02:59:45;9.45;;;7.32;;
11541;SDS011;5827;49.482;7.716;2022-10-29T03:01:47;10.63;;;7.28;;
11541;SDS011;5827;49.482;7.716;2022-10-29T03:03:48;10.77;;;7.55;;
11541;SDS011;5827;49.482;7.716;2022-10-29T03:05:49;10.00;;;7.28;;
11541;SDS011;5827;49.482;7.716;2022-10-29T03:07:52;9.95;;;7.40;;
11541;SDS011;5827;49.482;7.716;2022-10-29T03:09:54;10.45;;;7.85;;
11541;SDS011;5827;49.482;7.716;2022-10-29T03:11:55;12.88;;;8.27;;
11541;SDS011;5827;49.482;7.716;2022-10-29T03:13:57;11.75;;;7.55;;
11541;SDS011;5827;49.482;7.716;2022-10-29T03:15:58;8.50;;;7.20;;
11541;SDS011;5827;49.482;7.716;2022-10-29T03:18:00;9.55;;;7.32;;
11541;SDS011;5827;49.482;7.716;2022-10-29T03:20:02;11.52;;;8.13;;
11541;SDS011;5827;49.482;7.716;2022-10-29T03:22:03;9.30;;;7.43;;
11541;SDS011;5827;49.482;7.716;2022-10-29T03:24:07;10.40;;;7.83;;
11541;SDS011;5827;49.482;7.716;2022-10-29T03:26:08;15.15;;;8.70;;
11541;SDS011;5827;49.482;7.716;2022-10-29T03:28:10;12.70;;;8.13;;
11541;SDS011;5827;49.482;7.716;2022-10-29T03:30:12;11.95;;;8.57;;
11541;SDS011;5827;49.482;7.716;2022-10-29T03:32:15;13.77;;;8.05;;
11541;SDS011;5827;49.482;7.716;2022-10-29T03:34:17;10.63;;;7.93;;
11541;SDS011;5827;49.482;7.716;2022-10-29T03:36:18;11.30;;;8.23;;
11541;SDS011;5827;49.482;7.716;2022-10-29T03:38:20;11.93;;;8.35;;
11541;SDS011;5827;49.482;7.716;2022-10-29T03:40:23;13.60;;;9.43;;
11541;SDS011;5827;49.482;7.716;2022-10-29T03:42:24;11.05;;;8.48;;
11541;SDS011;5827;49.482;7.716;2022-10-29T03:44:26;10.70;;;8.52;;
11541;SDS011;5827;49.482;7.716;2022-10-29T03:46:27;12.05;;;8.38;;
11541;SDS011;5827;49.482;7.716;2022-10-29T03:48:29;11.82;;;7.82;;
11541;SDS011;5827;49.482;7.716;2022-10-29T03:50:30;12.57;;;8.70;;
11541;SDS011;5827;49.482;7.716;2022-10-29T03:52:32;9.40;;;7.93;;
11541;SDS011;5827;49.482;7.716;2022-10-29T03:54:34;11.70;;;8.75;;
11541;SDS011;5827;49.482;7.716;2022-10-29T03:56:36;15.57;;;10.40;;
11541;SDS011;5827;49.482;7.716;2022-10-29T03:58:38;14.88;;;9.93;;
11541;SDS011;5827;49.482;7.716;2022-10-29T04:00:39;12.32;;;8.88;;
11541;SDS011;5827;49.482;7.716;2022-10-29T04:02:41;11.35;;;8.50;;
11541;SDS011;5827;49.482;7.716;2022-10-29T04:04:43;14.15;;;8.18;;
11541;SDS011;5827;49.482;7.716;2022-10-29T04:06:43;13.63;;;8.65;;
11541;SDS011;5827;49.482;7.716;2022-10-29T04:08:45;13.10;;;8.53;;
11541;SDS011;5827;49.482;7.716;2022-10-29T04:10:47;15.52;;;8.93;;
11541;SDS011;5827;49.482;7.716;2022-10-29T04:12:51;12.73;;;8.13;;
11541;SDS011;5827;49.482;7.716;2022-10-29T04:14:52;12.17;;;8.57;;
11541;SDS011;5827;49.482;7.716;2022-10-29T04:16:54;12.90;;;8.35;;
11541;SDS011;5827;49.482;7.716;2022-10-29T04:18:55;12.13;;;7.47;;
11541;SDS011;5827;49.482;7.716;2022-10-29T04:20:58;12.45;;;8.02;;
11541;SDS011;5827;49.482;7.716;2022-10-29T04:23:00;13.77;;;8.18;;
11541;SDS011;5827;49.482;7.716;2022-10-29T04:25:02;11.57;;;8.10;;
11541;SDS011;5827;49.482;7.716;2022-10-29T04:27:04;11.50;;;7.90;;
11541;SDS011;5827;49.482;7.716;2022-10-29T04:29:07;11.02;;;7.70;;
11541;SDS011;5827;49.482;7.716;2022-10-29T04:31:09;11.57;;;8.32;;
11541;SDS011;5827;49.482;7.716;2022-10-29T04:33:12;12.35;;;8.73;;
11541;SDS011;5827;49.482;7.716;2022-10-29T04:35:13;12.48;;;8.13;;
11541;SDS011;5827;49.482;7.716;2022-10-29T04:37:15;14.10;;;8.55;;
11541;SDS011;5827;49.482;7.716;2022-10-29T04:39:17;13.30;;;8.67;;
11541;SDS011;5827;49.482;7.716;2022-10-29T04:41:18;13.32;;;8.30;;
11541;SDS011;5827;49.482;7.716;2022-10-29T04:43:20;12.20;;;7.85;;
11541;SDS011;5827;49.482;7.716;2022-10-29T04:45:23;11.73;;;8.00;;
11541;SDS011;5827;49.482;7.716;2022-10-29T04:47:24;13.20;;;8.27;;
11541;SDS011;5827;49.482;7.716;2022-10-29T04:49:26;11.27;;;8.32;;
11541;SDS011;5827;49.482;7.716;2022-10-29T04:51:27;9.98;;;8.25;;
11541;SDS011;5827;49.482;7.716;2022-10-29T04:53:29;13.35;;;8.70;;
11541;SDS011;5827;49.482;7.716;2022-10-29T04:55:30;10.88;;;8.40;;
11541;SDS011;5827;49.482;7.716;2022-10-29T04:57:32;11.13;;;8.20;;
11541;SDS011;5827;49.482;7.716;2022-10-29T04:59:33;13.85;;;8.68;;
11541;SDS011;5827;49.482;7.716;2022-10-29T05:01:36;11.27;;;7.88;;
11541;SDS011;5827;49.482;7.716;2022-10-29T05:03:38;13.68;;;8.23;;
11541;SDS011;5827;49.482;7.716;2022-10-29T05:05:39;11.98;;;8.25;;
11541;SDS011;5827;49.482;7.716;2022-10-29T05:07:41;14.25;;;8.68;;
11541;SDS011;5827;49.482;7.716;2022-10-29T05:09:43;14.18;;;8.40;;
11541;SDS011;5827;49.482;7.716;2022-10-29T05:11:44;11.88;;;8.32;;
11541;SDS011;5827;49.482;7.716;2022-10-29T05:13:46;13.30;;;8.67;;
11541;SDS011;5827;49.482;7.716;2022-10-29T05:15:48;12.07;;;8.07;;
11541;SDS011;5827;49.482;7.716;2022-10-29T05:17:52;11.88;;;8.02;;
11541;SDS011;5827;49.482;7.716;2022-10-29T05:19:53;11.48;;;8.48;;
11541;SDS011;5827;49.482;7.716;2022-10-29T05:21:55;16.13;;;8.90;;
11541;SDS011;5827;49.482;7.716;2022-10-29T05:23:57;16.70;;;8.98;;
11541;SDS011;5827;49.482;7.716;2022-10-29T05:25:58;12.80;;;8.53;;
11541;SDS011;5827;49.482;7.716;2022-10-29T05:28:00;13.55;;;8.15;;
11541;SDS011;5827;49.482;7.716;2022-10-29T05:30:03;13.43;;;8.27;;
11541;SDS011;5827;49.482;7.716;2022-10-29T05:32:05;14.05;;;8.05;;
11541;SDS011;5827;49.482;7.716;2022-10-29T05:34:08;16.10;;;8.70;;
11541;SDS011;5827;49.482;7.716;2022-10-29T05:36:10;14.38;;;8.93;;
11541;SDS011;5827;49.482;7.716;2022-10-29T05:38:12;11.85;;;8.55;;
11541;SDS011;5827;49.482;7.716;2022-10-29T05:40:14;15.73;;;9.05;;
11541;SDS011;5827;49.482;7.716;2022-10-29T05:42:16;14.52;;;10.45;;
11541;SDS011;5827;49.482;7.716;2022-10-29T05:44:17;16.02;;;11.63;;
11541;SDS011;5827;49.482;7.716;2022-10-29T05:46:19;15.20;;;9.60;;
11541;SDS011;5827;49.482;7.716;2022-10-29T05:48:21;14.27;;;9.10;;
11541;SDS011;5827;49.482;7.716;2022-10-29T05:50:24;10.90;;;8.93;;
11541;SDS011;5827;49.482;7.716;2022-10-29T05:52:25;15.18;;;8.90;;
11541;SDS011;5827;49.482;7.716;2022-10-29T05:54:27;13.02;;;8.63;;
11541;SDS011;5827;49.482;7.716;2022-10-29T05:56:28;13.85;;;8.88;;
11541;SDS011;5827;49.482;7.716;2022-10-29T05:58:30;12.23;;;8.85;;
11541;SDS011;5827;49.482;7.716;2022-10-29T06:00:32;11.97;;;8.30;;
11541;SDS011;5827;49.482;7.716;2022-10-29T06:02:35;10.50;;;8.40;;
11541;SDS011;5827;49.482;7.716;2022-10-29T06:04:37;11.25;;;8.25;;
11541;SDS011;5827;49.482;7.716;2022-10-29T06:06:39;13.80;;;10.35;;
11541;SDS011;5827;49.482;7.716;2022-10-29T06:08:41;16.40;;;8.57;;
11541;SDS011;5827;49.482;7.716;2022-10-29T06:10:43;13.23;;;8.30;;
11541;SDS011;5827;49.482;7.716;2022-10-29T06:12:45;11.40;;;8.57;;
11541;SDS011;5827;49.482;7.716;2022-10-29T06:14:46;10.57;;;8.13;;
11541;SDS011;5827;49.482;7.716;2022-10-29T06:16:48;13.48;;;8.82;;
11541;SDS011;5827;49.482;7.716;2022-10-29T06:18:49;12.25;;;8.70;;
11541;SDS011;5827;49.482;7.716;2022-10-29T06:20:51;10.45;;;8.30;;
11541;SDS011;5827;49.482;7.716;2022-10-29T06:22:57;9.77;;;7.78;;
11541;SDS011;5827;49.482;7.716;2022-10-29T06:24:59;12.40;;;9.00;;
11541;SDS011;5827;49.482;7.716;2022-10-29T06:27:00;12.18;;;7.72;;
11541;SDS011;5827;49.482;7.716;2022-10-29T06:29:02;15.50;;;8.10;;
11541;SDS011;5827;49.482;7.716;2022-10-29T06:31:03;10.43;;;7.95;;
11541;SDS011;5827;49.482;7.716;2022-10-29T06:33:05;12.32;;;8.05;;
11541;SDS011;5827;49.482;7.716;2022-10-29T06:35:08;12.55;;;8.18;;
11541;SDS011;5827;49.482;7.716;2022-10-29T06:37:10;12.25;;;7.80;;
11541;SDS011;5827;49.482;7.716;2022-10-29T06:39:13;12.48;;;8.40;;
11541;SDS011;5827;49.482;7.716;2022-10-29T06:41:14;14.60;;;11.32;;
11541;SDS011;5827;49.482;7.716;2022-10-29T06:43:16;12.40;;;8.70;;
11541;SDS011;5827;49.482;7.716;2022-10-29T06:45:17;11.57;;;7.95;;
11541;SDS011;5827;49.482;7.716;2022-10-29T06:47:21;11.60;;;7.82;;
11541;SDS011;5827;49.482;7.716;2022-10-29T06:49:23;14.25;;;10.23;;
11541;SDS011;5827;49.482;7.716;2022-10-29T06:51:24;12.68;;;9.23;;
11541;SDS011;5827;49.482;7.716;2022-10-29T06:53:26;12.73;;;8.68;;
11541;SDS011;5827;49.482;7.716;2022-10-29T06:55:29;11.23;;;8.52;;
11541;SDS011;5827;49.482;7.716;2022-10-29T06:57:30;10.95;;;7.95;;
11541;SDS011;5827;49.482;7.716;2022-10-29T06:59:32;11.82;;;7.88;;
11541;SDS011;5827;49.482;7.716;2022-10-29T07:01:34;11.98;;;7.70;;
11541;SDS011;5827;49.482;7.716;2022-10-29T07:03:35;11.90;;;7.60;;
11541;SDS011;5827;49.482;7.716;2022-10-29T07:05:37;10.50;;;7.38;;
11541;SDS011;5827;49.482;7.716;2022-10-29T07:07:38;10.90;;;7.22;;
11541;SDS011;5827;49.482;7.716;2022-10-29T07:09:40;11.18;;;7.70;;
11541;SDS011;5827;49.482;7.716;2022-10-29T07:11:43;8.73;;;7.13;;
11541;SDS011;5827;49.482;7.716;2022-10-29T07:13:45;11.35;;;7.38;;
11541;SDS011;5827;49.482;7.716;2022-10-29T07:15:46;11.37;;;7.83;;
11541;SDS011;5827;49.482;7.716;2022-10-29T07:17:55;10.73;;;7.63;;
11541;SDS011;5827;49.482;7.716;2022-10-29T07:19:57;11.60;;;7.60;;
11541;SDS011;5827;49.482;7.716;2022-10-29T07:21:59;11.32;;;7.50;;
11541;SDS011;5827;49.482;7.716;2022-10-29T07:24:00;12.15;;;7.30;;
11541;SDS011;5827;49.482;7.716;2022-10-29T07:26:02;11.37;;;8.00;;
11541;SDS011;5827;49.482;7.716;2022-10-29T07:28:05;9.70;;;7.43;;
11541;SDS011;5827;49.482;7.716;2022-10-29T07:30:08;11.90;;;8.00;;
11541;SDS011;5827;49.482;7.716;2022-10-29T07:32:11;10.48;;;7.60;;
11541;SDS011;5827;49.482;7.716;2022-10-29T07:34:12;10.98;;;8.32;;
11541;SDS011;5827;49.482;7.716;2022-10-29T07:36:14;12.88;;;7.60;;
11541;SDS011;5827;49.482;7.716;2022-10-29T07:38:15;13.35;;;8.77;;
11541;SDS011;5827;49.482;7.716;2022-10-29T07:40:17;14.57;;;8.52;;
11541;SDS011;5827;49.482;7.716;2022-10-29T07:42:18;12.77;;;8.45;;
11541;SDS011;5827;49.482;7.716;2022-10-29T07:44:21;10.43;;;7.90;;
11541;SDS011;5827;49.482;7.716;2022-10-29T07:46:23;15.27;;;7.72;;
11541;SDS011;5827;49.482;7.716;2022-10-29T07:48:24;9.50;;;7.53;;
11541;SDS011;5827;49.482;7.716;2022-10-29T07:50:26;13.57;;;7.77;;
11541;SDS011;5827;49.482;7.716;2022-10-29T07:52:28;12.05;;;7.78;;
11541;SDS011;5827;49.482;7.716;2022-10-29T07:54:29;10.40;;;7.45;;
11541;SDS011;5827;49.482;7.716;2022-10-29T07:56:31;12.93;;;7.80;;
11541;SDS011;5827;49.482;7.716;2022-10-29T07:58:32;10.50;;;8.00;;
11541;SDS011;5827;49.482;7.716;2022-10-29T08:00:36;11.10;;;7.65;;
11541;SDS011;5827;49.482;7.716;2022-10-29T08:02:39;11.07;;;7.82;;
11541;SDS011;5827;49.482;7.716;2022-10-29T08:04:41;12.60;;;8.18;;
11541;SDS011;5827;49.482;7.716;2022-10-29T08:06:42;9.77;;;7.78;;
11541;SDS011;5827;49.482;7.716;2022-10-29T08:08:44;13.88;;;8.50;;
11541;SDS011;5827;49.482;7.716;2022-10-29T08:10:45;13.38;;;8.27;;
11541;SDS011;5827;49.482;7.716;2022-10-29T08:12:47;13.55;;;8.73;;
11541;SDS011;5827;49.482;7.716;2022-10-29T08:14:50;14.15;;;9.45;;
11541;SDS011;5827;49.482;7.716;2022-10-29T08:16:53;16.95;;;9.80;;
11541;SDS011;5827;49.482;7.716;2022-10-29T08:18:54;16.85;;;10.18;;
11541;SDS011;5827;49.482;7.716;2022-10-29T08:20:56;14.90;;;10.73;;
11541;SDS011;5827;49.482;7.716;2022-10-29T08:22:58;15.07;;;10.48;;
11541;SDS011;5827;49.482;7.716;2022-10-29T08:25:00;14.85;;;10.10;;
11541;SDS011;5827;49.482;7.716;2022-10-29T08:27:01;14.65;;;9.88;;
11541;SDS011;5827;49.482;7.716;2022-10-29T08:29:03;17.17;;;10.07;;
11541;SDS011;5827;49.482;7.716;2022-10-29T08:31:05;16.05;;;9.80;;
11541;SDS011;5827;49.482;7.716;2022-10-29T08:33:08;16.77;;;10.60;;
11541;SDS011;5827;49.482;7.716;2022-10-29T08:35:10;14.82;;;9.73;;
11541;SDS011;5827;49.482;7.716;2022-10-29T08:37:12;15.18;;;9.38;;
11541;SDS011;5827;49.482;7.716;2022-10-29T08:39:13;13.68;;;9.23;;
11541;SDS011;5827;49.482;7.716;2022-10-29T08:41:34;15.57;;;9.50;;
11541;SDS011;5827;49.482;7.716;2022-10-29T08:43:50;14.95;;;9.90;;
11541;SDS011;5827;49.482;7.716;2022-10-29T08:46:03;14.48;;;9.80;;
11541;SDS011;5827;49.482;7.716;2022-10-29T08:48:14;18.13;;;10.70;;
11541;SDS011;5827;49.482;7.716;2022-10-29T08:50:26;13.93;;;9.88;;
11541;SDS011;5827;49.482;7.716;2022-10-29T08:52:31;14.63;;;10.07;;
11541;SDS011;5827;49.482;7.716;2022-10-29T08:54:37;15.82;;;9.77;;
11541;SDS011;5827;49.482;7.716;2022-10-29T08:56:42;17.97;;;9.40;;
11541;SDS011;5827;49.482;7.716;2022-10-29T08:58:51;16.47;;;9.93;;
11541;SDS011;5827;49.482;7.716;2022-10-29T09:00:56;14.98;;;9.90;;
11541;SDS011;5827;49.482;7.716;2022-10-29T09:02:59;14.88;;;9.30;;
11541;SDS011;5827;49.482;7.716;2022-10-29T09:05:02;14.43;;;9.23;;
11541;SDS011;5827;49.482;7.716;2022-10-29T09:09:40;14.02;;;9.60;;
11541;SDS011;5827;49.482;7.716;2022-10-29T09:11:49;17.30;;;9.77;;
11541;SDS011;5827;49.482;7.716;2022-10-29T09:14:07;14.95;;;9.30;;
11541;SDS011;5827;49.482;7.716;2022-10-29T09:16:23;14.98;;;9.48;;
11541;SDS011;5827;49.482;7.716;2022-10-29T09:18:39;12.82;;;9.40;;
11541;SDS011;5827;49.482;7.716;2022-10-29T09:20:53;14.10;;;9.13;;
11541;SDS011;5827;49.482;7.716;2022-10-29T09:23:06;14.10;;;9.13;;
11541;SDS011;5827;49.482;7.716;2022-10-29T09:25:15;14.60;;;9.30;;
11541;SDS011;5827;49.482;7.716;2022-10-29T09:27:20;19.20;;;9.38;;
11541;SDS011;5827;49.482;7.716;2022-10-29T09:29:32;13.40;;;8.85;;
11541;SDS011;5827;49.482;7.716;2022-10-29T09:31:48;16.25;;;9.00;;
11541;SDS011;5827;49.482;7.716;2022-10-29T09:33:53;13.20;;;8.57;;
11541;SDS011;5827;49.482;7.716;2022-10-29T09:36:09;17.30;;;9.38;;
11541;SDS011;5827;49.482;7.716;2022-10-29T09:38:15;15.13;;;8.68;;
11541;SDS011;5827;49.482;7.716;2022-10-29T09:40:37;14.98;;;7.93;;
11541;SDS011;5827;49.482;7.716;2022-10-29T09:42:41;14.32;;;8.48;;
11541;SDS011;5827;49.482;7.716;2022-10-29T09:44:45;15.60;;;8.80;;
11541;SDS011;5827;49.482;7.716;2022-10-29T09:46:54;13.60;;;8.15;;
11541;SDS011;5827;49.482;7.716;2022-10-29T09:49:06;12.68;;;8.10;;
11541;SDS011;5827;49.482;7.716;2022-10-29T09:51:19;15.20;;;7.97;;
11541;SDS011;5827;49.482;7.716;2022-10-29T09:53:32;14.35;;;7.88;;
11541;SDS011;5827;49.482;7.716;2022-10-29T09:55:35;12.70;;;8.02;;
11541;SDS011;5827;49.482;7.716;2022-10-29T09:57:40;15.77;;;8.30;;
11541;SDS011;5827;49.482;7.716;2022-10-29T09:59:43;13.03;;;7.63;;
11541;SDS011;5827;49.482;7.716;2022-10-29T10:01:48;16.23;;;7.75;;
11541;SDS011;5827;49.482;7.716;2022-10-29T10:03:52;13.30;;;7.53;;
11541;SDS011;5827;49.482;7.716;2022-10-29T10:05:57;13.57;;;7.10;;
11541;SDS011;5827;49.482;7.716;2022-10-29T10:08:06;12.27;;;7.00;;
11541;SDS011;5827;49.482;7.716;2022-10-29T10:10:18;11.05;;;6.50;;
11541;SDS011;5827;49.482;7.716;2022-10-29T10:12:23;10.80;;;6.95;;
11541;SDS011;5827;49.482;7.716;2022-10-29T10:14:26;10.33;;;6.33;;
11541;SDS011;5827;49.482;7.716;2022-10-29T10:16:31;12.60;;;6.88;;
11541;SDS011;5827;49.482;7.716;2022-10-29T10:18:40;13.67;;;6.77;;
11541;SDS011;5827;49.482;7.716;2022-10-29T10:20:42;13.02;;;6.80;;
11541;SDS011;5827;49.482;7.716;2022-10-29T10:22:45;11.90;;;6.80;;
11541;SDS011;5827;49.482;7.716;2022-10-29T10:24:49;11.10;;;6.50;;
11541;SDS011;5827;49.482;7.716;2022-10-29T10:26:50;12.77;;;6.70;;
11541;SDS011;5827;49.482;7.716;2022-10-29T10:29:02;12.25;;;6.72;;
11541;SDS011;5827;49.482;7.716;2022-10-29T10:31:14;15.60;;;6.68;;
11541;SDS011;5827;49.482;7.716;2022-10-29T10:33:23;15.05;;;6.55;;
11541;SDS011;5827;49.482;7.716;2022-10-29T10:35:26;12.63;;;6.18;;
11541;SDS011;5827;49.482;7.716;2022-10-29T10:37:30;12.23;;;6.45;;
11541;SDS011;5827;49.482;7.716;2022-10-29T10:39:34;10.43;;;6.60;;
11541;SDS011;5827;49.482;7.716;2022-10-29T10:41:38;11.30;;;6.40;;
11541;SDS011;5827;49.482;7.716;2022-10-29T10:43:43;12.10;;;6.30;;
11541;SDS011;5827;49.482;7.716;2022-10-29T10:45:50;13.10;;;6.15;;
11541;SDS011;5827;49.482;7.716;2022-10-29T10:47:55;13.63;;;6.30;;
11541;SDS011;5827;49.482;7.716;2022-10-29T10:50:08;11.00;;;6.17;;
11541;SDS011;5827;49.482;7.716;2022-10-29T10:52:14;12.43;;;6.07;;
11541;SDS011;5827;49.482;7.716;2022-10-29T10:54:23;10.50;;;6.20;;
11541;SDS011;5827;49.482;7.716;2022-10-29T10:56:28;9.75;;;5.90;;
11541;SDS011;5827;49.482;7.716;2022-10-29T10:58:33;12.45;;;6.00;;
11541;SDS011;5827;49.482;7.716;2022-10-29T11:00:39;12.75;;;6.15;;
11541;SDS011;5827;49.482;7.716;2022-10-29T11:02:45;10.63;;;6.10;;
11541;SDS011;5827;49.482;7.716;2022-10-29T11:04:54;13.17;;;6.17;;
11541;SDS011;5827;49.482;7.716;2022-10-29T11:06:59;10.65;;;6.20;;
11541;SDS011;5827;49.482;7.716;2022-10-29T11:09:06;11.27;;;6.10;;
11541;SDS011;5827;49.482;7.716;2022-10-29T11:11:16;12.80;;;6.07;;
11541;SDS011;5827;49.482;7.716;2022-10-29T11:13:23;12.75;;;5.75;;
11541;SDS011;5827;49.482;7.716;2022-10-29T11:15:32;10.00;;;5.80;;
11541;SDS011;5827;49.482;7.716;2022-10-29T11:17:38;11.20;;;6.20;;
11541;SDS011;5827;49.482;7.716;2022-10-29T11:19:47;14.68;;;6.53;;
11541;SDS011;5827;49.482;7.716;2022-10-29T11:21:58;10.25;;;5.93;;
11541;SDS011;5827;49.482;7.716;2022-10-29T11:24:06;13.25;;;6.07;;
11541;SDS011;5827;49.482;7.716;2022-10-29T11:26:14;12.32;;;6.00;;
11541;SDS011;5827;49.482;7.716;2022-10-29T11:28:20;10.80;;;5.63;;
11541;SDS011;5827;49.482;7.716;2022-10-29T11:30:26;10.70;;;5.77;;
11541;SDS011;5827;49.482;7.716;2022-10-29T11:32:37;8.85;;;5.50;;
11541;SDS011;5827;49.482;7.716;2022-10-29T11:34:47;10.07;;;5.80;;
11541;SDS011;5827;49.482;7.716;2022-10-29T11:36:57;13.32;;;6.28;;
11541;SDS011;5827;49.482;7.716;2022-10-29T11:39:07;10.75;;;5.97;;
11541;SDS011;5827;49.482;7.716;2022-10-29T11:41:15;10.85;;;6.05;;
11541;SDS011;5827;49.482;7.716;2022-10-29T11:43:24;10.30;;;6.30;;
11541;SDS011;5827;49.482;7.716;2022-10-29T11:45:30;10.57;;;5.65;;
11541;SDS011;5827;49.482;7.716;2022-10-29T11:47:54;12.75;;;6.10;;
11541;SDS011;5827;49.482;7.716;2022-10-29T11:50:15;11.38;;;5.82;;
11541;SDS011;5827;49.482;7.716;2022-10-29T11:52:28;12.75;;;6.32;;
11541;SDS011;5827;49.482;7.716;2022-10-29T11:54:45;10.60;;;6.00;;
11541;SDS011;5827;49.482;7.716;2022-10-29T11:57:00;11.05;;;6.30;;
11541;SDS011;5827;49.482;7.716;2022-10-29T11:59:05;11.88;;;6.00;;
11541;SDS011;5827;49.482;7.716;2022-10-29T12:01:16;14.63;;;5.97;;
11541;SDS011;5827;49.482;7.716;2022-10-29T12:03:29;12.05;;;5.75;;
11541;SDS011;5827;49.482;7.716;2022-10-29T12:05:42;11.98;;;5.55;;
11541;SDS011;5827;49.482;7.716;2022-10-29T12:07:55;10.80;;;5.38;;
11541;SDS011;5827;49.482;7.716;2022-10-29T12:12:29;12.15;;;5.88;;
11541;SDS011;5827;49.482;7.716;2022-10-29T12:14:39;10.68;;;5.75;;
11541;SDS011;5827;49.482;7.716;2022-10-29T12:16:48;10.73;;;5.60;;
11541;SDS011;5827;49.482;7.716;2022-10-29T12:19:00;10.90;;;5.70;;
11541;SDS011;5827;49.482;7.716;2022-10-29T12:21:12;9.50;;;5.35;;
11541;SDS011;5827;49.482;7.716;2022-10-29T12:23:23;9.07;;;5.60;;
11541;SDS011;5827;49.482;7.716;2022-10-29T12:25:34;8.10;;;5.32;;
11541;SDS011;5827;49.482;7.716;2022-10-29T12:27:43;11.10;;;5.60;;
11541;SDS011;5827;49.482;7.716;2022-10-29T12:29:55;14.00;;;5.60;;
11541;SDS011;5827;49.482;7.716;2022-10-29T12:32:02;9.45;;;5.28;;
11541;SDS011;5827;49.482;7.716;2022-10-29T12:34:12;11.13;;;5.15;;
11541;SDS011;5827;49.482;7.716;2022-10-29T12:36:20;11.50;;;5.45;;